Time;durP1;ratioP1;P1;durP2;ratioP2;P2;SDS_P1;SDS_P2;PMS_P1;PMS_P2;Temp;Humidity;BMP_temperature;BMP_pressure;BME280_temperature;BME280_humidity;BME280_pressure;Samples;Min_cycle;Max_cycle;Signal;HPM_P1;HPM_P2
2023/06/16 00:00:38;;;;;;;8.82;7.40;;;13.10;99.90;;;;;;5110996;27;20740;-87
2023/06/16 00:03:05;;;;;;;9.70;8.80;;;13.20;99.90;;;;;;5093458;27;20794;-87
2023/06/16 00:05:34;;;;;;;10.10;9.10;;;12.90;99.90;;;;;;5111103;27;20489;-87
2023/06/16 00:08:00;;;;;;;11.18;7.82;;;12.80;99.90;;;;;;5110320;27;20942;-88
2023/06/16 00:10:26;;;;;;;8.55;7.65;;;12.70;99.90;;;;;;5094343;27;20800;-87
2023/06/16 00:12:52;;;;;;;7.85;7.05;;;12.80;99.90;;;;;;5093142;27;20393;-87
2023/06/16 00:15:19;;;;;;;9.60;8.60;;;13.00;99.90;;;;;;5093975;27;20418;-87
2023/06/16 00:17:46;;;;;;;9.07;8.25;;;12.70;99.90;;;;;;5093617;27;20399;-87
2023/06/16 00:20:19;;;;;;;9.07;8.27;;;12.60;99.90;;;;;;5110393;27;20391;-88
2023/06/16 00:22:47;;;;;;;9.52;8.63;;;12.60;99.90;;;;;;5093509;27;20410;-87
2023/06/16 00:25:15;;;;;;;8.60;7.80;;;12.60;99.90;;;;;;5109806;27;20398;-87
2023/06/16 00:27:41;;;;;;;9.98;9.00;;;12.50;99.90;;;;;;5111006;27;20842;-87
2023/06/16 00:30:07;;;;;;;8.80;7.97;;;12.60;99.90;;;;;;5092541;27;20531;-87
2023/06/16 00:32:33;;;;;;;9.05;8.18;;;12.50;99.90;;;;;;5110629;27;20394;-87
2023/06/16 00:34:59;;;;;;;11.48;10.38;;;12.90;99.90;;;;;;5093276;27;20531;-87
2023/06/16 00:37:24;;;;;;;11.02;9.93;;;12.60;99.90;;;;;;5092795;27;20399;-87
2023/06/16 00:39:50;;;;;;;12.00;10.80;;;12.60;99.90;;;;;;5110231;27;20452;-87
2023/06/16 00:42:15;;;;;;;9.48;8.55;;;12.60;99.90;;;;;;5109483;27;20427;-87
2023/06/16 00:44:41;;;;;;;10.97;9.83;;;12.60;99.90;;;;;;5110982;27;20871;-87
2023/06/16 00:47:07;;;;;;;14.25;12.85;;;12.60;99.90;;;;;;5091974;27;20407;-87
2023/06/16 00:49:33;;;;;;;15.55;14.05;;;12.50;99.90;;;;;;5110601;27;20409;-87
2023/06/16 00:52:00;;;;;;;15.32;14.02;;;12.50;99.90;;;;;;5092626;27;20436;-86
2023/06/16 00:54:26;;;;;;;12.03;10.93;;;12.50;99.90;;;;;;5109786;27;20403;-87
2023/06/16 00:56:52;;;;;;;11.90;10.90;;;12.50;99.90;;;;;;5092850;27;20493;-85
2023/06/16 00:59:18;;;;;;;13.77;12.60;;;12.50;99.90;;;;;;5092197;27;20493;-87
2023/06/16 01:01:44;;;;;;;11.88;10.77;;;12.50;99.90;;;;;;5110120;27;20929;-87
2023/06/16 01:04:12;;;;;;;15.47;13.90;;;12.40;99.90;;;;;;5109370;27;20403;-87
2023/06/16 01:06:37;;;;;;;11.70;10.60;;;12.40;99.90;;;;;;5093575;27;20759;-87
2023/06/16 01:09:15;;;;;;;11.10;10.00;;;12.40;99.90;;;;;;5092339;27;20399;-87
2023/06/16 01:12:03;;;;;;;11.88;10.98;;;12.40;99.90;;;;;;5092516;27;20431;-86
2023/06/16 01:15:24;;;;;;;10.52;9.57;;;12.40;99.90;;;;;;5109970;27;20758;-87
2023/06/16 01:17:53;;;;;;;10.15;9.25;;;12.40;99.90;;;;;;5030566;28;20800;-87
2023/06/16 01:20:29;;;;;;;10.52;9.68;;;12.40;99.90;;;;;;5098206;27;20482;-87
2023/06/16 01:23:33;;;;;;;12.60;11.47;;;12.40;99.90;;;;;;5092403;27;20422;-87
2023/06/16 01:26:01;;;;;;;12.70;11.52;;;12.30;99.90;;;;;;5108665;27;20398;-87
2023/06/16 01:28:30;;;;;;;13.45;12.35;;;12.30;99.90;;;;;;5109592;27;20437;-88
2023/06/16 01:30:57;;;;;;;12.63;11.43;;;12.30;99.90;;;;;;5109050;27;20410;-87
2023/06/16 01:33:24;;;;;;;12.85;11.75;;;12.20;99.90;;;;;;5109563;27;20825;-88
2023/06/16 01:35:52;;;;;;;11.10;10.20;;;12.20;99.90;;;;;;5091996;27;20391;-87
2023/06/16 01:38:19;;;;;;;11.48;10.52;;;12.30;99.90;;;;;;5091484;27;20526;-87
2023/06/16 01:40:46;;;;;;;11.68;10.75;;;12.20;99.90;;;;;;5092491;27;20921;-87
2023/06/16 01:43:12;;;;;;;13.40;12.20;;;12.20;99.90;;;;;;5091227;27;20507;-87
2023/06/16 01:45:38;;;;;;;21.13;19.23;;;12.10;99.90;;;;;;5109507;27;20730;-87
2023/06/16 01:48:05;;;;;;;17.70;16.23;;;12.20;99.90;;;;;;5091382;27;20442;-86
2023/06/16 01:50:31;;;;;;;17.10;15.60;;;12.20;99.90;;;;;;5091594;27;20406;-88
2023/06/16 01:52:57;;;;;;;13.63;12.52;;;12.10;99.90;;;;;;5091747;27;20414;-87
2023/06/16 01:55:22;;;;;;;16.80;15.27;;;12.00;99.90;;;;;;5091422;27;20402;-88
2023/06/16 01:57:49;;;;;;;15.23;13.88;;;11.90;99.90;;;;;;5091625;27;20530;-87
2023/06/16 02:00:29;;;;;;;14.63;13.33;;;11.90;99.90;;;;;;5107538;27;20402;-88
2023/06/16 02:03:21;;;;;;;15.70;14.45;;;12.00;99.90;;;;;;5091948;27;20426;-87
2023/06/16 02:05:51;;;;;;;10.75;9.95;;;11.90;99.90;;;;;;5075363;27;20414;-87
2023/06/16 02:08:21;;;;;;;17.98;16.50;;;11.90;99.90;;;;;;5107946;27;20444;-88
2023/06/16 02:10:47;;;;;;;13.27;12.17;;;11.90;99.90;;;;;;5108602;27;20482;-87
2023/06/16 02:13:13;;;;;;;13.32;12.23;;;11.80;99.90;;;;;;5090853;27;20413;-87
2023/06/16 02:15:38;;;;;;;21.37;19.57;;;11.80;99.90;;;;;;5108735;27;20395;-87
2023/06/16 02:18:04;;;;;;;18.17;16.67;;;12.00;99.90;;;;;;5090739;27;20925;-87
2023/06/16 02:20:30;;;;;;;17.33;15.90;;;11.70;99.90;;;;;;5091513;27;20403;-86
2023/06/16 02:22:55;;;;;;;13.33;12.23;;;11.60;99.90;;;;;;5108010;27;21229;-86
2023/06/16 02:25:21;;;;;;;13.83;12.73;;;11.60;99.90;;;;;;5108129;27;20422;-87
2023/06/16 02:27:47;;;;;;;15.07;13.87;;;11.70;99.90;;;;;;5108312;27;20711;-87
2023/06/16 02:30:13;;;;;;;13.87;12.67;;;11.70;99.90;;;;;;5090307;27;20489;-87
2023/06/16 02:32:39;;;;;;;16.88;15.57;;;11.80;99.90;;;;;;5108288;27;20937;-87
2023/06/16 02:35:08;;;;;;;18.60;17.00;;;11.80;99.90;;;;;;5090806;27;20387;-86
2023/06/16 02:37:35;;;;;;;26.23;24.05;;;11.80;99.90;;;;;;5091245;28;20394;-87
2023/06/16 02:40:03;;;;;;;25.33;23.25;;;11.80;99.90;;;;;;5090828;28;20395;-87
2023/06/16 02:42:28;;;;;;;24.30;22.17;;;11.80;99.90;;;;;;5090784;28;20423;-86
2023/06/16 02:44:54;;;;;;;21.70;19.90;;;11.70;99.90;;;;;;5091107;28;20406;-86
2023/06/16 02:47:19;;;;;;;24.23;22.17;;;11.60;99.90;;;;;;5107387;28;20898;-87
2023/06/16 02:49:45;;;;;;;24.10;22.02;;;11.50;99.90;;;;;;5108730;28;20451;-87
2023/06/16 02:52:11;;;;;;;24.33;22.20;;;11.50;99.90;;;;;;5090144;28;20403;-87
2023/06/16 02:54:38;;;;;;;34.87;31.80;;;11.50;99.90;;;;;;5091262;28;20410;-87
2023/06/16 02:57:05;;;;;;;26.10;23.83;;;11.40;99.90;;;;;;5107315;28;20914;-86
2023/06/16 02:59:31;;;;;;;149.25;31.50;;;11.40;99.90;;;;;;5107642;28;20406;-86
2023/06/16 03:01:56;;;;;;;23.40;20.35;;;11.40;99.90;;;;;;5090503;28;20418;-87
2023/06/16 03:04:22;;;;;;;23.90;21.80;;;11.30;99.90;;;;;;5107832;28;20483;-87
2023/06/16 03:06:49;;;;;;;21.93;19.93;;;11.30;99.90;;;;;;5090919;28;20401;-87
2023/06/16 03:09:15;;;;;;;22.33;20.33;;;11.30;99.90;;;;;;5106975;27;20446;-86
2023/06/16 03:11:41;;;;;;;24.00;22.10;;;11.30;99.90;;;;;;5112426;27;20773;-86
2023/06/16 03:14:07;;;;;;;21.63;19.83;;;11.20;99.90;;;;;;5111015;27;20405;-87
2023/06/16 03:16:32;;;;;;;23.90;21.80;;;11.30;99.90;;;;;;5111757;27;20493;-86
2023/06/16 03:18:58;;;;;;;23.25;21.35;;;11.20;99.90;;;;;;5094885;27;20407;-87
2023/06/16 03:21:24;;;;;;;23.13;21.23;;;11.50;99.90;;;;;;5111306;27;20422;-87
2023/06/16 03:23:50;;;;;;;30.20;27.67;;;11.10;99.90;;;;;;5094898;27;20403;-87
2023/06/16 03:26:17;;;;;;;26.83;24.43;;;11.30;99.90;;;;;;5111183;27;20413;-87
2023/06/16 03:28:42;;;;;;;18.75;17.25;;;11.40;99.90;;;;;;5094851;27;20420;-85
2023/06/16 03:31:08;;;;;;;21.52;19.63;;;11.50;99.90;;;;;;5093648;27;20410;-86
2023/06/16 03:33:34;;;;;;;23.00;21.07;;;11.50;99.90;;;;;;5111540;27;20391;-87
2023/06/16 03:35:59;;;;;;;26.02;23.83;;;11.60;99.90;;;;;;5094140;27;20471;-86
2023/06/16 03:38:25;;;;;;;25.80;23.73;;;11.70;99.90;;;;;;5094226;27;20973;-87
2023/06/16 03:40:50;;;;;;;28.33;25.85;;;11.90;99.90;;;;;;5094194;27;20447;-87
2023/06/16 03:43:16;;;;;;;33.07;30.27;;;12.00;99.90;;;;;;5110537;27;20925;-87
2023/06/16 03:45:42;;;;;;;33.35;30.45;;;12.00;99.90;;;;;;5111311;27;20902;-86
2023/06/16 03:48:07;;;;;;;31.40;28.57;;;12.20;99.90;;;;;;5110668;27;20841;-86
2023/06/16 03:50:33;;;;;;;37.63;34.13;;;12.20;99.90;;;;;;5094617;27;20397;-86
2023/06/16 03:52:59;;;;;;;34.10;31.00;;;12.50;99.90;;;;;;5110182;27;20482;-86
2023/06/16 03:55:24;;;;;;;45.37;41.03;;;12.40;99.90;;;;;;5094054;27;20477;-86
2023/06/16 03:57:50;;;;;;;37.88;34.40;;;12.50;99.90;;;;;;5093522;27;20407;-86
2023/06/16 04:00:16;;;;;;;27.75;25.17;;;12.50;99.90;;;;;;5093434;27;20948;-87
2023/06/16 04:02:42;;;;;;;34.50;31.33;;;12.60;99.90;;;;;;5110911;27;20965;-87
2023/06/16 04:05:09;;;;;;;36.13;33.03;;;12.70;99.90;;;;;;5092993;27;20403;-87
2023/06/16 04:07:35;;;;;;;51.03;46.22;;;12.80;99.90;;;;;;5110968;27;20401;-86
2023/06/16 04:10:01;;;;;;;50.25;45.45;;;13.00;99.90;;;;;;5093300;27;20395;-86
2023/06/16 04:12:27;;;;;;;63.83;57.27;;;13.10;99.90;;;;;;5111188;27;21000;-87
2023/06/16 04:14:53;;;;;;;50.63;45.97;;;12.90;99.90;;;;;;5093084;27;20481;-87
2023/06/16 04:17:18;;;;;;;56.00;50.53;;;13.00;99.90;;;;;;5110470;27;20398;-86
2023/06/16 04:19:46;;;;;;;54.83;49.60;;;13.10;99.90;;;;;;5093477;27;20434;-86
2023/06/16 04:22:11;;;;;;;52.90;47.80;;;13.10;99.90;;;;;;5108625;27;20471;-87
2023/06/16 04:24:37;;;;;;;57.95;52.15;;;13.20;99.90;;;;;;5093916;27;20422;-87
2023/06/16 04:27:03;;;;;;;65.80;59.00;;;13.30;99.90;;;;;;5092948;27;20770;-87
2023/06/16 04:29:29;;;;;;;66.00;59.05;;;13.50;99.90;;;;;;5110245;27;20463;-87
2023/06/16 04:32:00;;;;;;;66.55;59.60;;;13.70;99.90;;;;;;5109692;27;20411;-86
2023/06/16 04:34:26;;;;;;;60.05;54.08;;;13.80;99.90;;;;;;5110044;27;20953;-86
2023/06/16 04:36:53;;;;;;;60.72;54.85;;;13.90;99.90;;;;;;5128373;27;20442;-86
2023/06/16 04:39:19;;;;;;;61.65;55.42;;;14.00;99.90;;;;;;5092504;27;20395;-87
2023/06/16 04:41:44;;;;;;;59.75;53.72;;;14.30;99.90;;;;;;5110329;27;20468;-86
2023/06/16 04:44:11;;;;;;;56.13;50.70;;;14.30;99.90;;;;;;5109112;27;20493;-86
2023/06/16 04:46:37;;;;;;;50.28;45.50;;;14.50;99.90;;;;;;5128952;27;20430;-86
2023/06/16 04:49:03;;;;;;;52.83;47.77;;;14.60;99.90;;;;;;5109313;27;20873;-86
2023/06/16 04:51:29;;;;;;;52.03;47.13;;;14.70;99.90;;;;;;5110021;27;20399;-86
2023/06/16 04:53:55;;;;;;;52.30;47.40;;;14.70;99.90;;;;;;5109607;27;20395;-86
2023/06/16 04:56:20;;;;;;;51.03;46.17;;;14.90;99.90;;;;;;5109655;27;20399;-86
2023/06/16 04:58:46;;;;;;;48.50;44.03;;;15.20;99.90;;;;;;5109559;27;20395;-86
2023/06/16 05:01:12;;;;;;;51.30;46.45;;;15.20;99.90;;;;;;5109145;27;20406;-86
2023/06/16 05:03:37;;;;;;;46.87;42.47;;;15.30;99.90;;;;;;5109813;27;20403;-86
2023/06/16 05:06:03;;;;;;;49.47;44.75;;;15.40;99.90;;;;;;5091538;27;20851;-86
2023/06/16 05:08:29;;;;;;;46.58;42.35;;;15.80;99.90;;;;;;5109798;27;20398;-86
2023/06/16 05:10:55;;;;;;;45.17;41.10;;;15.80;99.90;;;;;;5108912;27;20405;-87
2023/06/16 05:13:21;;;;;;;43.05;39.25;;;16.00;99.90;;;;;;5109272;27;20489;-87
2023/06/16 05:15:46;;;;;;;42.00;38.50;;;16.20;99.90;;;;;;5109261;27;20403;-86
2023/06/16 05:18:12;;;;;;;43.50;39.80;;;16.30;99.90;;;;;;5108996;27;20834;-86
2023/06/16 05:20:38;;;;;;;42.80;39.10;;;16.40;99.90;;;;;;5127800;27;20413;-87
2023/06/16 05:23:04;;;;;;;40.22;36.72;;;16.30;99.90;;;;;;5108393;27;20419;-86
2023/06/16 05:25:32;;;;;;;38.83;35.40;;;16.90;99.90;;;;;;5109900;27;20978;-87
2023/06/16 05:27:58;;;;;;;38.40;35.17;;;17.20;99.90;;;;;;5108490;27;20431;-87
2023/06/16 05:30:24;;;;;;;38.00;34.80;;;17.00;99.90;;;;;;5108998;27;20516;-87
2023/06/16 05:32:49;;;;;;;36.35;33.17;;;17.30;99.90;;;;;;5108987;27;20471;-87
2023/06/16 05:35:15;;;;;;;37.27;34.13;;;17.50;99.90;;;;;;5092164;27;20398;-86
2023/06/16 05:37:41;;;;;;;38.28;35.08;;;17.70;99.90;;;;;;5092504;27;20898;-86
2023/06/16 05:40:07;;;;;;;35.63;32.73;;;17.50;99.90;;;;;;5108140;27;20399;-86
2023/06/16 05:42:33;;;;;;;36.00;33.00;;;17.60;99.90;;;;;;5109068;27;20427;-86
2023/06/16 05:44:58;;;;;;;35.83;32.70;;;17.70;99.90;;;;;;5107925;27;20898;-86
2023/06/16 05:47:24;;;;;;;35.67;32.67;;;18.00;99.90;;;;;;5092166;27;20424;-86
2023/06/16 05:49:50;;;;;;;33.30;30.40;;;18.00;99.90;;;;;;5108783;27;20395;-86
2023/06/16 05:52:15;;;;;;;34.10;31.20;;;18.10;99.90;;;;;;5091380;27;20398;-86
2023/06/16 05:54:41;;;;;;;33.57;30.77;;;18.20;99.90;;;;;;5108943;27;20403;-87
2023/06/16 05:57:07;;;;;;;31.15;28.67;;;18.40;99.90;;;;;;5107828;27;20402;-86
2023/06/16 05:59:35;;;;;;;30.00;27.50;;;18.50;99.90;;;;;;5092098;27;21023;-87
2023/06/16 06:02:01;;;;;;;31.15;28.48;;;18.90;99.90;;;;;;5107780;27;20423;-87
2023/06/16 06:04:29;;;;;;;29.17;26.77;;;18.80;99.90;;;;;;5091878;27;20681;-87
2023/06/16 06:06:55;;;;;;;28.75;26.25;;;18.80;99.90;;;;;;5107781;27;20987;-86
2023/06/16 06:09:21;;;;;;;27.67;25.38;;;18.90;99.90;;;;;;5108492;27;20399;-87
2023/06/16 06:11:46;;;;;;;27.53;25.23;;;19.00;99.90;;;;;;5108231;27;20399;-87
2023/06/16 06:14:12;;;;;;;24.98;22.88;;;19.10;99.90;;;;;;5107730;27;20398;-86
2023/06/16 06:16:38;;;;;;;25.80;23.70;;;19.40;99.90;;;;;;5108902;27;20506;-87
2023/06/16 06:19:04;;;;;;;21.55;19.70;;;19.40;99.90;;;;;;5107711;27;20410;-86
2023/06/16 06:21:30;;;;;;;19.63;18.03;;;19.40;99.90;;;;;;5109045;27;20431;-87
2023/06/16 06:23:56;;;;;;;20.77;18.88;;;19.50;99.90;;;;;;5107703;27;20399;-87
2023/06/16 06:26:22;;;;;;;19.63;17.83;;;19.60;99.90;;;;;;5108624;27;20407;-88
2023/06/16 06:28:47;;;;;;;19.33;17.63;;;19.40;99.90;;;;;;5090752;27;20787;-87
2023/06/16 06:31:13;;;;;;;16.07;14.63;;;19.90;99.90;;;;;;5091223;27;20488;-87
2023/06/16 06:33:39;;;;;;;17.88;16.38;;;20.10;99.90;;;;;;5108333;27;20940;-86
2023/06/16 06:36:05;;;;;;;18.83;16.98;;;19.90;99.90;;;;;;5090819;27;20407;-87
2023/06/16 06:38:30;;;;;;;16.73;15.23;;;20.00;99.90;;;;;;5092286;27;20866;-87
2023/06/16 06:40:56;;;;;;;15.80;14.40;;;20.10;99.90;;;;;;5090834;28;20472;-87
2023/06/16 06:43:22;;;;;;;15.70;14.20;;;20.30;99.90;;;;;;5107929;28;20410;-88
2023/06/16 06:45:48;;;;;;;16.35;14.95;;;20.40;99.90;;;;;;5107354;28;20407;-87
2023/06/16 06:48:14;;;;;;;15.88;14.57;;;20.40;99.90;;;;;;5091446;28;20387;-88
2023/06/16 06:50:40;;;;;;;15.57;14.10;;;20.70;99.90;;;;;;5108138;28;20918;-87
2023/06/16 06:53:06;;;;;;;15.23;13.93;;;20.90;99.90;;;;;;5090736;28;20917;-88
2023/06/16 06:55:31;;;;;;;16.23;14.82;;;21.00;99.90;;;;;;5091930;28;20763;-88
2023/06/16 06:57:57;;;;;;;16.20;14.73;;;21.00;99.90;;;;;;5089938;28;20395;-87
2023/06/16 07:00:23;;;;;;;17.60;16.02;;;21.20;99.90;;;;;;5091802;28;20426;-88
2023/06/16 07:02:48;;;;;;;17.40;15.97;;;21.10;99.90;;;;;;5107225;28;20437;-87
2023/06/16 07:05:14;;;;;;;16.02;14.50;;;21.20;99.90;;;;;;5108162;28;20395;-87
2023/06/16 07:07:40;;;;;;;15.57;14.18;;;21.20;99.90;;;;;;5091385;28;20395;-87
2023/06/16 07:10:06;;;;;;;14.55;13.25;;;21.20;99.90;;;;;;5090705;28;20410;-88
2023/06/16 07:12:31;;;;;;;14.13;12.82;;;21.20;99.90;;;;;;5091101;28;20464;-88
2023/06/16 07:14:57;;;;;;;12.38;11.25;;;21.10;99.90;;;;;;5107328;28;20463;-88
2023/06/16 07:17:23;;;;;;;12.47;11.47;;;21.20;99.90;;;;;;5108292;28;20492;-87
2023/06/16 07:19:48;;;;;;;11.85;10.85;;;21.30;99.90;;;;;;5090390;28;20411;-87
2023/06/16 07:22:14;;;;;;;11.37;10.43;;;21.30;99.90;;;;;;5091314;28;20425;-88
2023/06/16 07:24:40;;;;;;;12.63;11.43;;;21.40;99.90;;;;;;5090968;28;20443;-87
2023/06/16 07:27:06;;;;;;;11.53;10.43;;;21.50;99.90;;;;;;5090576;28;20426;-88
2023/06/16 07:29:32;;;;;;;10.25;9.18;;;21.60;99.90;;;;;;5107628;27;20406;-87
2023/06/16 07:31:58;;;;;;;9.15;8.23;;;21.80;99.90;;;;;;5107433;28;20403;-87
2023/06/16 07:34:23;;;;;;;8.75;8.02;;;21.80;99.90;;;;;;5107852;28;20402;-88
2023/06/16 07:36:49;;;;;;;7.70;7.10;;;22.00;99.90;;;;;;5106909;28;20770;-88
2023/06/16 07:39:15;;;;;;;8.70;7.90;;;22.00;99.90;;;;;;5107946;28;20766;-88
2023/06/16 07:41:41;;;;;;;7.60;6.80;;;22.20;99.90;;;;;;5090043;28;20422;-87
2023/06/16 07:44:07;;;;;;;6.90;6.20;;;22.40;99.90;;;;;;5090352;28;20728;-88
2023/06/16 07:46:33;;;;;;;6.82;5.85;;;22.20;99.60;;;;;;5107360;28;20398;-87
2023/06/16 07:48:58;;;;;;;7.25;5.32;;;22.30;99.40;;;;;;5107439;28;20862;-88
2023/06/16 07:51:25;;;;;;;5.55;5.05;;;22.40;97.70;;;;;;5107992;28;20430;-87
2023/06/16 07:53:50;;;;;;;4.57;4.03;;;22.60;92.80;;;;;;5106865;28;20785;-87
2023/06/16 07:56:16;;;;;;;4.80;3.80;;;22.50;88.60;;;;;;5091129;28;20399;-87
2023/06/16 07:58:42;;;;;;;5.82;3.95;;;22.70;90.10;;;;;;5093179;27;20421;-87
2023/06/16 08:01:08;;;;;;;6.43;4.47;;;22.80;80.30;;;;;;5111297;27;20394;-88
2023/06/16 08:03:34;;;;;;;4.03;3.73;;;22.70;88.50;;;;;;5110801;27;20974;-87
2023/06/16 08:06:00;;;;;;;4.95;3.67;;;22.80;92.40;;;;;;5110682;27;20402;-88
2023/06/16 08:08:27;;;;;;;4.53;3.42;;;23.10;87.20;;;;;;5129700;27;20917;-87
2023/06/16 08:10:56;;;;;;;4.00;3.20;;;23.10;81.80;;;;;;5110329;27;20395;-87
2023/06/16 08:13:23;;;;;;;4.10;2.75;;;23.00;72.80;;;;;;5111524;27;20412;-88
2023/06/16 08:15:49;;;;;;;4.53;3.47;;;23.30;66.30;;;;;;5110599;27;20438;-88
2023/06/16 08:18:14;;;;;;;4.88;3.33;;;23.20;61.30;;;;;;5111038;27;20406;-87
2023/06/16 08:20:40;;;;;;;3.60;2.60;;;23.30;67.50;;;;;;5093461;27;20430;-87
2023/06/16 08:23:05;;;;;;;4.60;2.83;;;23.10;65.40;;;;;;5093592;27;20454;-87
2023/06/16 08:25:31;;;;;;;3.30;2.55;;;23.20;62.90;;;;;;5093508;27;20426;-87
2023/06/16 08:27:57;;;;;;;4.43;2.37;;;23.20;64.20;;;;;;5109826;27;20485;-87
2023/06/16 08:30:22;;;;;;;4.38;2.50;;;23.50;71.00;;;;;;5110811;27;20807;-88
2023/06/16 08:32:48;;;;;;;3.20;2.40;;;23.60;63.00;;;;;;5128612;27;20478;-88
2023/06/16 08:35:14;;;;;;;3.47;2.50;;;23.60;60.80;;;;;;5093812;27;20438;-88
2023/06/16 08:37:40;;;;;;;2.90;1.60;;;23.70;54.50;;;;;;5110383;27;20445;-87
2023/06/16 08:40:08;;;;;;;3.00;1.70;;;23.70;53.10;;;;;;5110435;27;20407;-87
2023/06/16 08:42:36;;;;;;;3.88;1.50;;;23.70;49.40;;;;;;5110025;27;20918;-86
2023/06/16 08:45:03;;;;;;;3.55;2.03;;;23.80;55.30;;;;;;5110048;27;20848;-88
2023/06/16 08:47:29;;;;;;;4.53;2.17;;;24.00;52.90;;;;;;5111221;27;20406;-88
2023/06/16 08:49:56;;;;;;;3.15;1.58;;;24.10;52.40;;;;;;5109442;27;20800;-88
2023/06/16 08:52:25;;;;;;;3.00;1.50;;;24.20;54.10;;;;;;5129300;27;20391;-88
2023/06/16 08:54:57;;;;;;;2.95;1.65;;;24.30;51.30;;;;;;5109604;27;20890;-88
2023/06/16 08:57:24;;;;;;;2.70;1.50;;;24.40;53.30;;;;;;5109442;27;21440;-87
2023/06/16 08:59:55;;;;;;;2.97;1.50;;;24.60;51.30;;;;;;5109723;27;20398;-87
2023/06/16 09:02:21;;;;;;;2.57;1.33;;;24.40;47.70;;;;;;5109749;27;20430;-88
2023/06/16 09:04:47;;;;;;;2.63;1.50;;;24.30;48.90;;;;;;5093528;27;20846;-88
2023/06/16 09:07:19;;;;;;;2.30;1.40;;;24.60;51.40;;;;;;5091764;27;20662;-87
2023/06/16 09:09:45;;;;;;;3.47;1.60;;;24.40;48.20;;;;;;5109876;27;20414;-88
2023/06/16 09:12:11;;;;;;;2.88;1.65;;;24.40;50.70;;;;;;5092332;27;20406;-87
2023/06/16 09:14:38;;;;;;;3.05;1.60;;;24.40;44.60;;;;;;5110011;27;20405;-88
2023/06/16 09:17:05;;;;;;;2.67;1.40;;;24.40;45.00;;;;;;5109427;27;20957;-87
2023/06/16 09:19:34;;;;;;;3.13;1.70;;;24.40;48.20;;;;;;5109246;27;20474;-88
2023/06/16 09:22:02;;;;;;;2.38;1.65;;;24.60;50.10;;;;;;5092515;27;20430;-89
2023/06/16 09:24:28;;;;;;;2.90;1.33;;;24.70;45.80;;;;;;5092393;27;20744;-87
2023/06/16 09:27:02;;;;;;;3.03;1.17;;;24.60;44.40;;;;;;5092902;27;20477;-87
2023/06/16 09:29:28;;;;;;;2.13;1.27;;;24.70;43.70;;;;;;5108260;27;20494;-87
2023/06/16 09:32:09;;;;;;;1.95;1.30;;;24.90;45.90;;;;;;5109476;27;20536;-88
2023/06/16 09:34:35;;;;;;;4.72;1.13;;;24.80;45.30;;;;;;5092605;27;20454;-87
2023/06/16 09:37:05;;;;;;;3.88;1.33;;;24.90;44.90;;;;;;5091586;27;20953;-87
2023/06/16 09:39:31;;;;;;;3.10;1.10;;;25.00;43.50;;;;;;5092779;27;20913;-87
2023/06/16 09:41:58;;;;;;;2.88;1.35;;;25.10;46.50;;;;;;5108209;27;20438;-87
2023/06/16 09:44:25;;;;;;;2.20;1.10;;;25.30;48.40;;;;;;5109410;27;20403;-88
2023/06/16 09:46:52;;;;;;;2.30;1.20;;;25.40;43.50;;;;;;5091765;27;20403;-88
2023/06/16 09:49:24;;;;;;;2.63;1.38;;;25.40;44.40;;;;;;5109316;27;20402;-87
2023/06/16 09:51:57;;;;;;;3.00;1.20;;;25.40;40.70;;;;;;5108725;27;20399;-88
2023/06/16 09:54:25;;;;;;;2.80;1.45;;;25.50;44.00;;;;;;5108420;27;20503;-88
2023/06/16 09:56:51;;;;;;;3.15;1.48;;;25.80;45.20;;;;;;5109161;27;20405;-87
2023/06/16 09:59:17;;;;;;;3.15;1.80;;;26.00;45.60;;;;;;5091389;27;20873;-88
2023/06/16 10:01:45;;;;;;;3.17;2.00;;;26.30;41.80;;;;;;5108698;27;20945;-88
2023/06/16 10:04:14;;;;;;;3.47;1.65;;;26.20;40.60;;;;;;5108021;27;20410;-88
2023/06/16 10:06:56;;;;;;;2.60;1.70;;;26.30;39.80;;;;;;5108471;27;20409;-88
2023/06/16 10:09:27;;;;;;;2.20;1.55;;;26.40;42.00;;;;;;5092077;27;20405;-88
2023/06/16 10:11:57;;;;;;;2.83;2.50;;;26.60;41.60;;;;;;5107797;27;20395;-89
2023/06/16 10:14:30;;;;;;;3.72;3.13;;;26.70;39.30;;;;;;5109157;27;20754;-89
2023/06/16 10:16:58;;;;;;;4.15;3.60;;;26.80;38.40;;;;;;5090666;27;20410;-88
2023/06/16 10:19:25;;;;;;;4.57;3.10;;;26.80;37.20;;;;;;5107705;28;20402;-88
2023/06/16 10:21:51;;;;;;;3.13;2.35;;;26.90;37.80;;;;;;5091207;28;20415;-88
2023/06/16 10:24:17;;;;;;;2.63;2.00;;;27.00;39.20;;;;;;5091055;27;20410;-88
2023/06/16 10:26:44;;;;;;;2.83;2.15;;;27.10;37.80;;;;;;5108522;27;20802;-88
2023/06/16 10:29:16;;;;;;;4.00;1.92;;;27.20;37.70;;;;;;5107556;27;20758;-89
2023/06/16 10:31:45;;;;;;;2.77;2.17;;;27.50;39.10;;;;;;5109023;27;20902;-88
2023/06/16 10:34:23;;;;;;;4.68;1.92;;;27.70;39.20;;;;;;5107426;27;20531;-89
2023/06/16 10:36:51;;;;;;;3.10;1.50;;;27.80;38.90;;;;;;5091101;28;20451;-88
2023/06/16 10:39:18;;;;;;;2.40;1.30;;;28.10;38.70;;;;;;5108802;27;20824;-90
2023/06/16 10:42:00;;;;;;;2.20;1.50;;;28.40;36.80;;;;;;5090725;28;20525;-89
2023/06/16 10:44:28;;;;;;;2.22;1.20;;;28.60;32.80;;;;;;5109077;28;20775;-89
2023/06/16 10:47:09;;;;;;;2.63;1.00;;;28.50;33.00;;;;;;5091363;28;20455;-90
2023/06/16 10:49:58;;;;;;;3.08;1.15;;;28.40;31.50;;;;;;5091515;28;20763;-90
2023/06/16 10:52:50;;;;;;;3.22;1.17;;;28.40;33.50;;;;;;5108690;28;20414;-89
2023/06/16 10:55:32;;;;;;;2.20;1.10;;;28.30;32.30;;;;;;5090638;28;20833;-91
2023/06/16 10:58:19;;;;;;;2.30;1.00;;;28.50;34.40;;;;;;5108364;28;20791;-89
2023/06/16 11:00:55;;;;;;;2.55;1.08;;;28.50;34.50;;;;;;5125948;28;20404;-89
2023/06/16 11:03:21;;;;;;;2.60;1.20;;;28.60;33.70;;;;;;5090553;28;20774;-89
2023/06/16 11:05:48;;;;;;;3.10;1.23;;;28.80;32.70;;;;;;5108290;28;20391;-89
2023/06/16 11:08:15;;;;;;;2.25;1.17;;;28.80;31.80;;;;;;5090216;28;20399;-89
2023/06/16 11:10:51;;;;;;;3.10;1.05;;;29.10;33.40;;;;;;5108138;28;20386;-88
2023/06/16 11:13:26;;;;;;;1.73;0.70;;;29.30;32.40;;;;;;5090727;28;20406;-88
2023/06/16 11:15:55;;;;;;;2.20;0.90;;;29.50;32.00;;;;;;5090660;28;20459;-88
2023/06/16 11:18:26;;;;;;;2.15;0.80;;;29.80;33.10;;;;;;5091181;28;20530;-89
2023/06/16 11:20:56;;;;;;;3.73;1.00;;;29.90;31.50;;;;;;5090688;28;20407;-90
2023/06/16 11:23:21;;;;;;;1.38;0.80;;;30.10;33.30;;;;;;5091653;28;20422;-89
2023/06/16 11:25:48;;;;;;;2.63;1.00;;;30.20;30.10;;;;;;5106915;28;20929;-89
2023/06/16 11:28:14;;;;;;;2.17;1.08;;;30.30;33.60;;;;;;5108087;28;20419;-90
2023/06/16 11:30:40;;;;;;;2.03;0.98;;;30.40;33.10;;;;;;5107646;27;20459;-88
2023/06/16 11:33:06;;;;;;;1.92;1.15;;;30.50;31.60;;;;;;5111592;27;20419;-89
2023/06/16 11:35:33;;;;;;;2.55;1.00;;;30.60;31.40;;;;;;5094793;27;20437;-89
2023/06/16 11:38:02;;;;;;;2.97;0.93;;;30.70;32.00;;;;;;5094049;27;20405;-89
2023/06/16 11:40:30;;;;;;;2.60;1.08;;;30.80;32.90;;;;;;5094766;27;20403;-89
2023/06/16 11:43:03;;;;;;;3.10;1.13;;;31.00;32.20;;;;;;5110959;27;20519;-89
2023/06/16 11:45:36;;;;;;;2.60;0.90;;;31.20;32.40;;;;;;5095100;27;20819;-90
2023/06/16 11:48:03;;;;;;;3.65;0.93;;;31.30;32.50;;;;;;5111170;27;20407;-90
2023/06/16 11:50:29;;;;;;;3.53;0.93;;;31.60;30.10;;;;;;5094497;27;20391;-89
2023/06/16 11:52:56;;;;;;;2.20;1.00;;;31.40;32.30;;;;;;5111817;27;20421;-90
2023/06/16 11:55:22;;;;;;;2.55;0.90;;;31.20;30.60;;;;;;5094128;27;20446;-89
2023/06/16 11:57:48;;;;;;;2.22;1.00;;;31.20;30.90;;;;;;5111785;27;20478;-90
2023/06/16 12:00:15;;;;;;;1.90;1.10;;;31.00;30.60;;;;;;5093743;27;20989;-90
2023/06/16 12:02:43;;;;;;;2.22;1.30;;;31.20;31.20;;;;;;5111527;27;20422;-89
2023/06/16 12:05:17;;;;;;;2.20;1.00;;;31.30;31.70;;;;;;5094404;27;20759;-89
2023/06/16 12:07:43;;;;;;;4.03;1.40;;;31.30;30.40;;;;;;5094012;27;20494;-89
2023/06/16 12:10:09;;;;;;;1.70;1.20;;;31.30;29.40;;;;;;5093959;27;20469;-89
2023/06/16 12:12:38;;;;;;;3.90;0.98;;;31.40;31.70;;;;;;5110779;27;20773;-89
2023/06/16 12:15:04;;;;;;;3.00;1.20;;;31.20;32.00;;;;;;5111412;27;20398;-90
2023/06/16 12:17:33;;;;;;;3.50;1.25;;;31.10;30.40;;;;;;5110741;27;20739;-89
2023/06/16 12:19:58;;;;;;;2.28;0.90;;;31.10;33.20;;;;;;5111009;27;20428;-90
2023/06/16 12:22:35;;;;;;;1.90;1.20;;;30.90;31.50;;;;;;5110662;27;20554;-88
2023/06/16 12:25:00;;;;;;;3.30;1.13;;;31.30;31.30;;;;;;5110511;27;20540;-89
2023/06/16 12:27:26;;;;;;;2.42;1.33;;;31.50;29.70;;;;;;5094320;27;20485;-90
2023/06/16 12:29:56;;;;;;;3.80;1.10;;;31.80;31.20;;;;;;5093007;27;20390;-90
2023/06/16 12:32:31;;;;;;;1.40;1.08;;;32.00;31.10;;;;;;5094080;27;20891;-89
2023/06/16 12:34:57;;;;;;;2.33;0.98;;;32.10;31.80;;;;;;5109819;27;20917;-89
2023/06/16 12:37:25;;;;;;;2.53;1.05;;;32.10;31.50;;;;;;5111030;27;20407;-90